Terminal Aerodrome Forecast
Issued by NWS

Home | Current Version | Previous Version | Text Only | Print | Product List | Glossary On
Versions: 1 2 3 4 5 6 7 8 9 10 11 12 13 14 15 16 17
000
FTUS45 KTWC 180520
TAFOLS
TAF
KOLS 180520Z 1806/1906 10005KT P6SM VCSH BKN040 OVC060
      TEMPO 1806/1808 -SHRA BKN030
     FM181300 06005KT P6SM BKN050
     FM181800 32006KT P6SM BKN070=

USA.gov is the U.S. government's official web portal to all federal, state and local government web resources and services.